Time;durP1;ratioP1;P1;durP2;ratioP2;P2;SDS_P1;SDS_P2;PMS_P1;PMS_P2;Temp;Humidity;BMP_temperature;BMP_pressure;BME280_temperature;BME280_humidity;BME280_pressure;Samples;Min_cycle;Max_cycle;Signal;HPM_P1;HPM_P2
2024/03/17 00:00:23;;;;;;;0.70;0.70;;;4.90;99.90;;;;;;4866816;29;20271;-77
2024/03/17 00:02:49;;;;;;;1.17;1.17;;;4.90;99.90;;;;;;4865230;29;20453;-79
2024/03/17 00:05:18;;;;;;;0.95;0.95;;;4.80;99.90;;;;;;4864919;29;20246;-79
2024/03/17 00:07:44;;;;;;;0.98;0.95;;;4.90;99.90;;;;;;4860980;29;20246;-77
2024/03/17 00:10:10;;;;;;;0.60;0.60;;;4.90;99.90;;;;;;4836329;29;20212;-77
2024/03/17 00:12:37;;;;;;;0.67;0.67;;;4.90;99.90;;;;;;4858897;29;20598;-79
2024/03/17 00:15:05;;;;;;;0.80;0.80;;;4.80;99.90;;;;;;4864707;29;20449;-78
2024/03/17 00:17:31;;;;;;;4.55;2.92;;;4.80;99.90;;;;;;4866613;29;20214;-77
2024/03/17 00:20:01;;;;;;;0.90;0.90;;;4.60;99.90;;;;;;4864183;29;20274;-78
2024/03/17 00:22:30;;;;;;;0.88;0.88;;;4.70;99.90;;;;;;4852493;29;20211;-79
2024/03/17 00:24:57;;;;;;;0.73;0.73;;;4.70;99.90;;;;;;4864018;29;20207;-79
2024/03/17 00:27:23;;;;;;;1.67;1.58;;;4.60;99.90;;;;;;4866130;29;20226;-79
2024/03/17 00:29:50;;;;;;;0.40;0.40;;;4.70;99.90;;;;;;4851596;29;20218;-77
2024/03/17 00:32:17;;;;;;;1.00;1.00;;;4.70;99.90;;;;;;4865954;29;20207;-80
2024/03/17 00:34:44;;;;;;;0.52;0.52;;;4.70;99.90;;;;;;4866664;29;20214;-81
2024/03/17 00:37:10;;;;;;;1.40;1.38;;;4.60;99.90;;;;;;4865820;29;20206;-78
2024/03/17 00:39:36;;;;;;;0.90;0.90;;;4.60;99.90;;;;;;4866310;29;20219;-77
2024/03/17 00:42:02;;;;;;;1.25;1.25;;;4.50;99.90;;;;;;4850576;29;20538;-78
2024/03/17 00:44:28;;;;;;;0.90;0.90;;;4.40;99.90;;;;;;4866990;29;20217;-78
2024/03/17 00:46:54;;;;;;;1.43;0.80;;;4.40;99.90;;;;;;4848103;29;20269;-79
2024/03/17 00:49:20;;;;;;;0.40;0.40;;;4.30;99.90;;;;;;4864997;29;20210;-80
2024/03/17 00:51:49;;;;;;;1.40;1.40;;;4.30;99.90;;;;;;4865402;29;20210;-78
2024/03/17 00:54:17;;;;;;;1.30;1.30;;;4.40;99.90;;;;;;4865362;29;20195;-78
2024/03/17 00:56:43;;;;;;;1.67;1.58;;;4.50;99.90;;;;;;4849360;29;20508;-81
2024/03/17 00:59:09;;;;;;;0.40;0.40;;;4.50;99.90;;;;;;4864402;29;20235;-77
2024/03/17 01:01:35;;;;;;;3.90;2.10;;;4.30;99.90;;;;;;4866079;29;20715;-79
2024/03/17 01:04:02;;;;;;;1.47;1.37;;;4.30;99.90;;;;;;4863097;29;20203;-80
2024/03/17 01:06:28;;;;;;;0.50;0.50;;;4.30;99.90;;;;;;4866251;29;20837;-81
2024/03/17 01:08:54;;;;;;;1.10;1.07;;;4.20;99.90;;;;;;4869995;29;20199;-80
2024/03/17 01:11:21;;;;;;;1.33;1.23;;;4.00;99.90;;;;;;4867744;29;20442;-78
2024/03/17 01:13:46;;;;;;;0.50;0.50;;;4.00;99.90;;;;;;4851300;29;20396;-77
2024/03/17 01:16:13;;;;;;;1.75;1.65;;;4.10;99.90;;;;;;4867843;29;20438;-79
2024/03/17 01:18:39;;;;;;;2.08;1.88;;;4.10;99.90;;;;;;4866786;29;20229;-79
2024/03/17 01:21:07;;;;;;;0.88;0.88;;;4.10;99.90;;;;;;4866649;29;20216;-78
2024/03/17 01:23:33;;;;;;;0.40;0.40;;;4.20;99.90;;;;;;4864338;29;20271;-77
2024/03/17 01:25:59;;;;;;;1.00;1.00;;;4.20;99.90;;;;;;4848321;29;20522;-78
2024/03/17 01:28:26;;;;;;;0.47;0.47;;;4.00;99.90;;;;;;4863242;29;20242;-78
2024/03/17 01:30:52;;;;;;;0.98;0.88;;;4.20;99.90;;;;;;4860430;29;20452;-79
2024/03/17 01:33:18;;;;;;;0.63;0.63;;;4.00;99.90;;;;;;4850360;29;20202;-79
2024/03/17 01:35:44;;;;;;;0.90;0.90;;;4.00;99.90;;;;;;4847696;29;20218;-79
2024/03/17 01:38:11;;;;;;;0.50;0.50;;;4.00;99.90;;;;;;4862809;29;20225;-78
2024/03/17 01:40:37;;;;;;;1.07;1.07;;;3.90;99.90;;;;;;4871377;29;20206;-78
2024/03/17 01:43:03;;;;;;;0.60;0.60;;;3.70;99.90;;;;;;4872957;29;20426;-80
2024/03/17 01:45:33;;;;;;;4.75;2.13;;;3.80;99.90;;;;;;4873688;29;20199;-78
2024/03/17 01:48:03;;;;;;;0.93;0.93;;;3.80;99.90;;;;;;4867506;29;20227;-80
2024/03/17 01:50:33;;;;;;;0.60;0.60;;;3.70;99.90;;;;;;4866176;29;20199;-78
2024/03/17 01:53:04;;;;;;;1.08;1.05;;;3.70;99.90;;;;;;4885071;29;20407;-79
2024/03/17 01:55:32;;;;;;;1.20;0.68;;;3.90;99.90;;;;;;4883089;29;20209;-77
2024/03/17 01:57:59;;;;;;;1.05;1.05;;;3.80;99.90;;;;;;4882940;29;20551;-78
2024/03/17 02:00:26;;;;;;;1.63;1.42;;;3.70;99.90;;;;;;4868477;29;20210;-77
2024/03/17 02:02:52;;;;;;;1.08;1.08;;;3.80;99.90;;;;;;4868332;29;20214;-76
2024/03/17 02:05:18;;;;;;;1.90;1.80;;;3.80;99.90;;;;;;4866899;29;20259;-77
2024/03/17 02:07:44;;;;;;;0.80;0.80;;;3.80;99.90;;;;;;4865193;29;20237;-77
2024/03/17 02:10:10;;;;;;;1.90;1.35;;;3.70;99.90;;;;;;4877570;29;20197;-78
2024/03/17 02:12:36;;;;;;;0.70;0.70;;;3.90;99.90;;;;;;4851995;29;20455;-76
2024/03/17 02:15:05;;;;;;;0.80;0.80;;;3.80;99.90;;;;;;4863920;29;20630;-76
2024/03/17 02:17:32;;;;;;;0.60;0.60;;;3.60;99.90;;;;;;4852707;29;20211;-77
2024/03/17 02:19:59;;;;;;;0.60;0.60;;;3.70;99.90;;;;;;4849448;29;20199;-79
2024/03/17 02:22:27;;;;;;;2.05;1.25;;;3.70;99.90;;;;;;4867265;29;20214;-77
2024/03/17 02:24:53;;;;;;;0.40;0.40;;;3.50;99.90;;;;;;4845238;29;20217;-82
2024/03/17 02:27:19;;;;;;;0.70;0.70;;;3.50;99.90;;;;;;4863112;29;20240;-79
2024/03/17 02:29:45;;;;;;;1.47;1.03;;;3.50;99.90;;;;;;4858060;29;20207;-78
2024/03/17 02:32:11;;;;;;;6.60;1.63;;;3.60;99.90;;;;;;4869655;29;20501;-78
2024/03/17 02:34:41;;;;;;;1.08;1.08;;;3.40;99.90;;;;;;4863552;29;20452;-77
2024/03/17 02:37:07;;;;;;;6.35;1.58;;;3.60;99.90;;;;;;4843697;29;20227;-78
2024/03/17 02:39:34;;;;;;;1.33;1.23;;;3.40;99.90;;;;;;4849271;29;20557;-77
2024/03/17 02:42:07;;;;;;;1.58;1.48;;;3.30;99.90;;;;;;4860961;29;20211;-77
2024/03/17 02:44:35;;;;;;;1.77;1.33;;;3.30;99.90;;;;;;4874368;29;20202;-79
2024/03/17 02:47:04;;;;;;;2.08;1.98;;;3.30;99.90;;;;;;4874416;29;20530;-79
2024/03/17 02:49:39;;;;;;;0.73;0.73;;;3.20;99.90;;;;;;4866617;29;20215;-78
2024/03/17 02:52:11;;;;;;;0.50;0.50;;;3.20;99.90;;;;;;4861371;29;20242;-77
2024/03/17 02:54:38;;;;;;;0.50;0.50;;;3.20;99.90;;;;;;4854701;29;20259;-79
2024/03/17 02:57:06;;;;;;;0.43;0.43;;;3.20;99.90;;;;;;4855786;29;20209;-78
2024/03/17 02:59:33;;;;;;;1.77;1.73;;;3.20;99.90;;;;;;4862575;29;20206;-76
2024/03/17 03:01:59;;;;;;;0.90;0.90;;;3.10;99.90;;;;;;4848495;29;20211;-77
2024/03/17 03:04:26;;;;;;;1.02;1.02;;;3.10;99.90;;;;;;4863448;29;20214;-77
2024/03/17 03:06:52;;;;;;;0.98;0.98;;;3.20;99.90;;;;;;4861945;29;20227;-77
2024/03/17 03:09:30;;;;;;;1.65;1.55;;;3.10;99.90;;;;;;4862667;29;20229;-76
2024/03/17 03:11:57;;;;;;;2.75;2.55;;;3.00;99.90;;;;;;4861941;29;20206;-76
2024/03/17 03:14:24;;;;;;;0.52;0.52;;;3.00;99.90;;;;;;4865699;29;20277;-77
2024/03/17 03:16:49;;;;;;;0.93;0.93;;;3.00;99.90;;;;;;4867800;29;20717;-79
2024/03/17 03:19:16;;;;;;;1.15;1.05;;;3.10;99.90;;;;;;4867291;29;20206;-77
2024/03/17 03:21:43;;;;;;;2.65;2.25;;;2.90;99.90;;;;;;4864600;29;20214;-77
2024/03/17 03:24:09;;;;;;;1.20;1.20;;;2.70;99.90;;;;;;4867400;29;20221;-77
2024/03/17 03:26:34;;;;;;;2.87;1.90;;;2.80;99.90;;;;;;4866448;29;20277;-76
2024/03/17 03:29:01;;;;;;;2.90;1.85;;;2.60;99.90;;;;;;4870071;29;20202;-78
2024/03/17 03:31:27;;;;;;;1.70;1.55;;;2.70;99.90;;;;;;4864045;29;20514;-79
2024/03/17 03:33:54;;;;;;;1.83;1.70;;;2.70;99.90;;;;;;4854768;29;20282;-77
2024/03/17 03:36:20;;;;;;;1.65;1.55;;;2.60;99.90;;;;;;4866983;29;20203;-77
2024/03/17 03:38:46;;;;;;;1.10;1.10;;;2.60;99.90;;;;;;4870893;29;20237;-78
2024/03/17 03:41:15;;;;;;;0.85;0.85;;;2.40;99.90;;;;;;4850170;29;20231;-77
2024/03/17 03:43:43;;;;;;;0.70;0.70;;;2.50;99.90;;;;;;4848094;29;20220;-79
2024/03/17 03:46:09;;;;;;;1.13;1.13;;;2.40;99.90;;;;;;4864304;29;20206;-78
2024/03/17 03:48:35;;;;;;;1.52;1.50;;;2.50;99.90;;;;;;4844937;29;20878;-79
2024/03/17 03:51:06;;;;;;;1.77;1.67;;;2.70;99.90;;;;;;4853163;29;20500;-78
2024/03/17 03:53:35;;;;;;;1.42;1.40;;;2.60;99.90;;;;;;4866715;29;20517;-77
2024/03/17 03:56:06;;;;;;;0.95;0.95;;;2.60;99.90;;;;;;4856242;29;20206;-79
2024/03/17 03:58:36;;;;;;;1.02;1.02;;;2.60;99.90;;;;;;4865785;29;20211;-78
2024/03/17 04:01:07;;;;;;;1.30;1.30;;;2.60;99.90;;;;;;4851301;29;20228;-77
2024/03/17 04:03:34;;;;;;;1.50;1.42;;;2.50;99.90;;;;;;4866489;29;20222;-78
2024/03/17 04:06:09;;;;;;;0.85;0.85;;;2.30;99.90;;;;;;4848474;29;20402;-77
2024/03/17 04:08:36;;;;;;;0.50;0.50;;;2.40;99.90;;;;;;4870641;29;20243;-76
2024/03/17 04:11:04;;;;;;;0.63;0.63;;;2.50;99.90;;;;;;4848409;29;20211;-78
2024/03/17 04:13:31;;;;;;;1.00;1.00;;;2.40;99.90;;;;;;4870089;29;20523;-76
2024/03/17 04:15:58;;;;;;;1.65;1.40;;;2.40;99.90;;;;;;4831487;29;20722;-78
2024/03/17 04:18:30;;;;;;;0.73;0.73;;;2.30;99.90;;;;;;4864374;29;20225;-77
2024/03/17 04:21:01;;;;;;;1.90;1.80;;;2.20;99.90;;;;;;4835555;29;20913;-75
2024/03/17 04:23:27;;;;;;;0.50;0.50;;;2.40;99.90;;;;;;4859773;29;20210;-78
2024/03/17 04:25:53;;;;;;;0.50;0.50;;;2.20;99.90;;;;;;4863030;29;20234;-77
2024/03/17 04:28:19;;;;;;;2.78;1.10;;;2.30;99.90;;;;;;4866322;29;20681;-78
2024/03/17 04:30:46;;;;;;;0.50;0.50;;;2.20;99.90;;;;;;4851020;29;20210;-77
2024/03/17 04:33:16;;;;;;;0.93;0.93;;;2.20;99.90;;;;;;4846919;29;20688;-79
2024/03/17 04:35:46;;;;;;;0.70;0.70;;;2.10;99.90;;;;;;4844368;29;20205;-78
2024/03/17 04:38:14;;;;;;;1.95;1.85;;;1.90;99.90;;;;;;4867491;29;20210;-79
2024/03/17 04:40:42;;;;;;;0.77;0.77;;;1.90;99.90;;;;;;4867277;29;20212;-77
2024/03/17 04:43:08;;;;;;;4.53;2.10;;;1.80;99.90;;;;;;4865241;29;20217;-80
2024/03/17 04:45:37;;;;;;;0.90;0.90;;;1.90;99.90;;;;;;4866135;29;20684;-81
2024/03/17 04:48:03;;;;;;;0.82;0.82;;;1.90;99.90;;;;;;4867021;29;20526;-80
2024/03/17 04:50:33;;;;;;;1.20;1.10;;;2.00;99.90;;;;;;4852434;29;20214;-79
2024/03/17 04:53:01;;;;;;;0.50;0.50;;;2.00;99.90;;;;;;4866048;29;20203;-81
2024/03/17 04:55:27;;;;;;;0.88;0.88;;;1.70;99.90;;;;;;4867457;29;20221;-80
2024/03/17 04:57:54;;;;;;;0.50;0.50;;;1.80;99.90;;;;;;4866233;29;20438;-80
2024/03/17 05:00:21;;;;;;;1.67;1.58;;;1.80;99.90;;;;;;4860063;29;20270;-80
2024/03/17 05:02:50;;;;;;;1.23;1.23;;;1.90;99.90;;;;;;4834424;29;20254;-80
2024/03/17 05:05:16;;;;;;;0.40;0.40;;;2.10;99.90;;;;;;4868687;29;20202;-78
2024/03/17 05:07:43;;;;;;;0.67;0.67;;;2.00;99.90;;;;;;4853337;29;20291;-78
2024/03/17 05:10:12;;;;;;;0.68;0.68;;;2.10;99.90;;;;;;4869574;29;20513;-79
2024/03/17 05:12:38;;;;;;;0.40;0.40;;;2.10;99.90;;;;;;4864634;29;20211;-79
2024/03/17 05:15:05;;;;;;;0.70;0.70;;;2.20;99.90;;;;;;4867204;29;20234;-81
2024/03/17 05:17:33;;;;;;;1.25;1.25;;;2.10;99.90;;;;;;4873139;29;20208;-79
2024/03/17 05:19:59;;;;;;;0.50;0.50;;;2.00;99.90;;;;;;4853047;29;20225;-85
2024/03/17 05:22:25;;;;;;;0.95;0.80;;;2.00;99.90;;;;;;4861661;29;20199;-81
2024/03/17 05:24:53;;;;;;;20.38;1.02;;;2.00;99.90;;;;;;4864045;29;20185;-84
2024/03/17 05:27:20;;;;;;;1.40;1.30;;;2.10;99.90;;;;;;4869927;29;20229;-82
2024/03/17 05:29:47;;;;;;;1.27;1.17;;;2.20;99.90;;;;;;4881538;29;20205;-80
2024/03/17 05:32:14;;;;;;;1.23;1.13;;;2.30;99.90;;;;;;4870448;29;20198;-77
2024/03/17 05:34:42;;;;;;;4.65;2.80;;;2.30;99.90;;;;;;4875736;29;20214;-78
2024/03/17 05:37:09;;;;;;;0.60;0.60;;;2.40;99.90;;;;;;4874491;29;20517;-80
2024/03/17 05:39:38;;;;;;;10.13;1.85;;;3.20;99.90;;;;;;4854598;29;20403;-78
2024/03/17 05:42:04;;;;;;;0.40;0.40;;;3.20;99.90;;;;;;4872686;29;20249;-79
2024/03/17 05:44:49;;;;;;;17.13;1.45;;;3.10;99.90;;;;;;4863944;29;20399;-78
2024/03/17 05:47:19;;;;;;;0.40;0.40;;;3.50;99.90;;;;;;4880341;29;20647;-80
2024/03/17 05:49:45;;;;;;;18.13;1.95;;;4.00;99.90;;;;;;4868181;29;20207;-80
2024/03/17 05:52:12;;;;;;;1.90;1.07;;;3.60;99.90;;;;;;4871433;29;20758;-76
2024/03/17 05:54:38;;;;;;;0.50;0.50;;;4.10;99.90;;;;;;4857200;29;20480;-76
2024/03/17 05:57:04;;;;;;;0.67;0.67;;;4.80;99.90;;;;;;4857600;29;20211;-78
2024/03/17 05:59:33;;;;;;;0.50;0.50;;;5.10;99.90;;;;;;4859810;29;20210;-76
2024/03/17 06:01:59;;;;;;;0.50;0.50;;;5.60;99.90;;;;;;4861725;29;20216;-80
2024/03/17 06:04:25;;;;;;;2.40;2.30;;;6.10;99.90;;;;;;4858900;29;20385;-76
2024/03/17 06:06:50;;;;;;;0.50;0.50;;;6.20;99.90;;;;;;4862128;29;20250;-77
2024/03/17 06:09:19;;;;;;;1.00;1.00;;;6.30;99.90;;;;;;4849764;29;20212;-78
2024/03/17 06:11:46;;;;;;;0.50;0.50;;;6.70;99.90;;;;;;4862043;29;20217;-79
2024/03/17 06:14:13;;;;;;;0.60;0.60;;;6.30;99.90;;;;;;4857235;29;20289;-77
2024/03/17 06:16:40;;;;;;;0.88;0.88;;;6.60;99.90;;;;;;4865717;29;20496;-80
2024/03/17 06:19:07;;;;;;;0.70;0.70;;;6.60;99.90;;;;;;4849550;29;20207;-79
2024/03/17 06:21:33;;;;;;;0.50;0.50;;;7.00;99.90;;;;;;4847249;29;20730;-82
2024/03/17 06:24:00;;;;;;;0.70;0.70;;;8.30;99.90;;;;;;4862069;29;20220;-80
2024/03/17 06:26:26;;;;;;;0.60;0.60;;;8.90;99.90;;;;;;4857507;29;20222;-83
2024/03/17 06:28:54;;;;;;;0.90;0.90;;;8.80;99.90;;;;;;4863673;29;20289;-78
2024/03/17 06:31:20;;;;;;;1.60;1.50;;;8.90;99.90;;;;;;4861286;29;20489;-79
2024/03/17 06:33:48;;;;;;;0.60;0.60;;;8.30;99.90;;;;;;4862875;29;20217;-80
2024/03/17 06:36:17;;;;;;;1.77;1.67;;;7.50;99.90;;;;;;4844454;29;20235;-78
2024/03/17 06:38:45;;;;;;;0.60;0.60;;;6.90;99.90;;;;;;4858315;29;20609;-79
2024/03/17 06:41:14;;;;;;;0.60;0.60;;;7.90;99.90;;;;;;4860913;29;20226;-82
2024/03/17 06:43:43;;;;;;;0.50;0.50;;;7.40;99.90;;;;;;4861599;29;20210;-82
2024/03/17 06:46:09;;;;;;;0.50;0.50;;;7.40;99.90;;;;;;4864584;29;20191;-81
2024/03/17 06:48:35;;;;;;;0.70;0.70;;;8.40;99.90;;;;;;4872054;29;20227;-82
2024/03/17 06:51:02;;;;;;;1.05;1.02;;;9.00;99.90;;;;;;4876729;29;20206;-80
2024/03/17 06:53:28;;;;;;;1.10;1.10;;;8.50;99.90;;;;;;4863521;29;20207;-78
2024/03/17 06:55:59;;;;;;;0.50;0.50;;;8.10;99.90;;;;;;4865520;29;20550;-77
2024/03/17 06:58:31;;;;;;;0.57;0.57;;;9.10;99.90;;;;;;4854010;29;20460;-79
2024/03/17 07:00:59;;;;;;;0.60;0.60;;;9.50;99.90;;;;;;4866688;29;20218;-79
2024/03/17 07:03:33;;;;;;;0.60;0.60;;;8.50;99.90;;;;;;4858981;29;20283;-79
2024/03/17 07:06:03;;;;;;;1.88;1.77;;;7.40;99.90;;;;;;4861528;29;20261;-79
2024/03/17 07:08:30;;;;;;;0.73;0.73;;;8.40;99.90;;;;;;4882470;29;20239;-79
2024/03/17 07:10:57;;;;;;;0.60;0.60;;;11.40;99.90;;;;;;4892776;29;20185;-80
2024/03/17 07:13:26;;;;;;;0.60;0.60;;;13.00;93.80;;;;;;4901201;29;20194;-80
2024/03/17 07:15:51;;;;;;;0.60;0.60;;;10.70;94.10;;;;;;4883088;29;20199;-81
2024/03/17 07:18:17;;;;;;;0.60;0.60;;;9.80;99.90;;;;;;4879357;29;20204;-79
2024/03/17 07:20:47;;;;;;;0.80;0.80;;;9.10;99.90;;;;;;4877357;29;20227;-83
2024/03/17 07:23:15;;;;;;;0.60;0.60;;;8.50;99.90;;;;;;4878134;29;20223;-79
2024/03/17 07:25:42;;;;;;;0.93;0.93;;;8.00;99.90;;;;;;4879439;29;20241;-81
2024/03/17 07:28:09;;;;;;;1.95;1.60;;;7.60;99.90;;;;;;4851541;29;20220;-80
2024/03/17 07:30:35;;;;;;;0.95;0.88;;;6.70;99.90;;;;;;4861302;29;20217;-81
2024/03/17 07:33:04;;;;;;;0.55;0.55;;;6.70;99.90;;;;;;4865825;29;20214;-80
2024/03/17 07:35:30;;;;;;;0.60;0.60;;;6.60;99.90;;;;;;4865358;29;20202;-82
2024/03/17 07:37:56;;;;;;;0.60;0.60;;;6.60;99.90;;;;;;4874694;29;20210;-81
2024/03/17 07:40:22;;;;;;;0.50;0.50;;;7.30;99.90;;;;;;4856894;29;20443;-79
2024/03/17 07:42:48;;;;;;;0.60;0.60;;;7.00;99.90;;;;;;4860227;29;20203;-81
2024/03/17 07:45:14;;;;;;;0.60;0.60;;;6.90;99.90;;;;;;4875218;29;20242;-84
2024/03/17 07:47:40;;;;;;;1.00;1.00;;;6.80;99.90;;;;;;4869856;29;20221;-82
2024/03/17 07:50:06;;;;;;;1.27;1.25;;;6.70;99.90;;;;;;4895683;29;20276;-84
2024/03/17 07:52:32;;;;;;;0.57;0.57;;;7.50;99.90;;;;;;4870396;29;20220;-79
2024/03/17 07:54:58;;;;;;;2.00;1.90;;;7.60;99.90;;;;;;4876103;29;20205;-82
2024/03/17 07:57:24;;;;;;;1.17;1.17;;;6.80;99.90;;;;;;4863851;29;20484;-81
2024/03/17 07:59:51;;;;;;;0.50;0.50;;;6.80;99.90;;;;;;4865416;29;20517;-81
2024/03/17 08:02:17;;;;;;;0.60;0.60;;;6.60;99.90;;;;;;4859958;29;20529;-83
2024/03/17 08:04:44;;;;;;;1.45;1.40;;;8.60;99.90;;;;;;4858159;29;20215;-80
2024/03/17 08:07:10;;;;;;;0.60;0.60;;;8.60;99.90;;;;;;4865628;29;20841;-83
2024/03/17 08:09:37;;;;;;;1.88;1.88;;;10.60;98.00;;;;;;4847342;29;20214;-81
2024/03/17 08:12:04;;;;;;;1.20;1.20;;;10.00;99.90;;;;;;4869988;29;20217;-82
2024/03/17 08:14:30;;;;;;;0.60;0.60;;;11.30;95.60;;;;;;4854522;29;20500;-84
2024/03/17 08:16:56;;;;;;;0.63;0.63;;;8.90;99.90;;;;;;4879398;29;20515;-81
2024/03/17 08:19:22;;;;;;;0.70;0.70;;;9.80;99.90;;;;;;4873741;29;20205;-82
2024/03/17 08:21:49;;;;;;;0.80;0.80;;;12.10;91.40;;;;;;4878501;29;20200;-82
2024/03/17 08:24:15;;;;;;;0.70;0.70;;;12.80;88.60;;;;;;4882069;29;20200;-84
2024/03/17 08:26:40;;;;;;;0.80;0.80;;;13.40;84.00;;;;;;4864966;29;20220;-81
2024/03/17 08:29:07;;;;;;;9.53;2.20;;;11.30;85.20;;;;;;4865364;29;20204;-84
2024/03/17 08:31:33;;;;;;;0.80;0.80;;;11.30;89.50;;;;;;4863372;29;20478;-82
2024/03/17 08:33:59;;;;;;;0.80;0.80;;;12.80;86.10;;;;;;4861963;29;20632;-83
2024/03/17 08:36:25;;;;;;;0.97;0.97;;;12.50;81.20;;;;;;4868251;29;20442;-81
2024/03/17 08:38:53;;;;;;;0.70;0.70;;;12.50;82.00;;;;;;4871130;29;20429;-81
2024/03/17 08:41:18;;;;;;;0.80;0.80;;;12.30;83.30;;;;;;4862475;29;20967;-80
2024/03/17 08:43:44;;;;;;;0.80;0.80;;;12.90;81.10;;;;;;4852211;29;20446;-84
2024/03/17 08:46:13;;;;;;;2.47;1.47;;;13.80;79.80;;;;;;4841572;29;20443;-82
2024/03/17 08:48:40;;;;;;;2.07;1.97;;;14.00;79.10;;;;;;4867956;29;20464;-81
2024/03/17 08:51:07;;;;;;;0.80;0.80;;;12.00;81.50;;;;;;4881796;29;20595;-80
2024/03/17 08:53:34;;;;;;;0.80;0.80;;;11.90;80.70;;;;;;4853500;29;20417;-80
2024/03/17 08:56:00;;;;;;;0.70;0.70;;;10.40;85.10;;;;;;4880511;29;20605;-81
2024/03/17 08:58:26;;;;;;;0.77;0.77;;;9.20;91.20;;;;;;4871919;29;20425;-80
2024/03/17 09:00:53;;;;;;;0.70;0.70;;;8.20;98.10;;;;;;4902701;29;20421;-81
2024/03/17 09:03:19;;;;;;;0.60;0.60;;;7.70;99.90;;;;;;4894160;29;20187;-83
2024/03/17 09:05:47;;;;;;;0.60;0.60;;;7.40;99.90;;;;;;4858169;29;20209;-83
2024/03/17 09:08:21;;;;;;;6.63;2.20;;;7.50;99.90;;;;;;4882273;29;20459;-82
2024/03/17 09:10:49;;;;;;;0.60;0.60;;;8.10;99.90;;;;;;4874406;29;20213;-82
2024/03/17 09:13:17;;;;;;;1.98;1.45;;;8.40;99.90;;;;;;4903936;29;20217;-82
2024/03/17 09:16:11;;;;;;;0.60;0.60;;;7.90;99.90;;;;;;4889859;29;20199;-80
2024/03/17 09:18:37;;;;;;;0.70;0.70;;;7.70;99.90;;;;;;4874273;29;20213;-82
2024/03/17 09:21:05;;;;;;;1.65;1.60;;;7.70;99.90;;;;;;4869638;29;20201;-79
2024/03/17 09:23:34;;;;;;;0.70;0.70;;;7.70;99.90;;;;;;4877366;29;20206;-86
2024/03/17 09:26:02;;;;;;;1.15;0.95;;;7.70;99.90;;;;;;4857519;29;20247;-79
2024/03/17 09:28:29;;;;;;;0.65;0.65;;;8.90;99.90;;;;;;4857524;29;20222;-83
2024/03/17 09:30:56;;;;;;;0.70;0.70;;;9.20;95.00;;;;;;4864366;29;20213;-82
2024/03/17 09:33:23;;;;;;;0.60;0.60;;;8.90;99.90;;;;;;4871558;29;20209;-83
2024/03/17 09:35:57;;;;;;;0.70;0.70;;;8.10;99.90;;;;;;4865238;29;20396;-81
2024/03/17 09:38:23;;;;;;;0.60;0.60;;;8.80;99.90;;;;;;4858526;29;20221;-81
2024/03/17 09:40:52;;;;;;;0.60;0.60;;;9.30;96.10;;;;;;4856722;29;20206;-81
2024/03/17 09:43:22;;;;;;;0.60;0.60;;;9.60;94.90;;;;;;4863652;29;20456;-83
2024/03/17 09:45:50;;;;;;;0.60;0.60;;;8.80;97.30;;;;;;4860491;29;20258;-85
2024/03/17 09:48:20;;;;;;;0.50;0.50;;;8.50;99.90;;;;;;4870145;29;20217;-83
2024/03/17 09:50:57;;;;;;;0.60;0.60;;;8.10;96.40;;;;;;4855824;29;20210;-81
2024/03/17 09:53:25;;;;;;;0.50;0.50;;;8.30;98.10;;;;;;4863087;29;20210;-81
2024/03/17 09:55:55;;;;;;;1.15;1.15;;;8.00;99.10;;;;;;4862155;29;20271;-78
2024/03/17 09:58:22;;;;;;;0.60;0.60;;;7.60;99.90;;;;;;4860628;29;20212;-82
2024/03/17 10:00:48;;;;;;;0.80;0.80;;;8.00;99.70;;;;;;4858711;29;20222;-80
2024/03/17 10:03:46;;;;;;;0.80;0.80;;;8.10;96.20;;;;;;4882702;29;20207;-82
2024/03/17 10:06:13;;;;;;;0.60;0.60;;;8.90;97.50;;;;;;4878391;29;20208;-81
2024/03/17 10:08:41;;;;;;;0.60;0.60;;;9.40;93.70;;;;;;4879939;29;20235;-81
2024/03/17 10:11:08;;;;;;;1.42;1.42;;;9.40;91.80;;;;;;4874328;29;20236;-82
2024/03/17 10:13:34;;;;;;;0.60;0.60;;;9.80;91.00;;;;;;4873696;29;20206;-84
2024/03/17 10:16:00;;;;;;;0.70;0.70;;;9.80;90.40;;;;;;4875478;29;20255;-80
2024/03/17 10:18:26;;;;;;;1.45;1.35;;;9.90;91.40;;;;;;4864183;29;20453;-83
2024/03/17 10:20:56;;;;;;;0.98;0.98;;;9.70;91.50;;;;;;4858623;29;20195;-81
2024/03/17 10:23:22;;;;;;;0.60;0.60;;;9.30;91.90;;;;;;4864968;29;20199;-84
2024/03/17 10:25:49;;;;;;;0.70;0.70;;;9.00;92.00;;;;;;4849203;29;20400;-85
2024/03/17 10:28:16;;;;;;;0.60;0.60;;;8.80;92.40;;;;;;4868151;29;20221;-82
2024/03/17 10:30:57;;;;;;;0.60;0.60;;;9.00;92.50;;;;;;4866367;29;20217;-81
2024/03/17 10:33:27;;;;;;;0.50;0.50;;;9.30;90.60;;;;;;4861830;29;20210;-81
2024/03/17 10:36:01;;;;;;;2.50;2.35;;;9.40;91.20;;;;;;4864933;29;20203;-80
2024/03/17 10:38:30;;;;;;;0.50;0.50;;;9.00;89.00;;;;;;4858192;29;20221;-83
2024/03/17 10:40:56;;;;;;;0.50;0.50;;;8.80;90.50;;;;;;4854206;29;20201;-83
2024/03/17 10:43:25;;;;;;;1.77;0.95;;;8.90;92.20;;;;;;4844081;29;20214;-85
2024/03/17 10:45:58;;;;;;;0.60;0.60;;;9.10;91.10;;;;;;4863187;29;20245;-82
2024/03/17 10:48:30;;;;;;;0.50;0.50;;;9.40;90.90;;;;;;4856567;29;20227;-84
2024/03/17 10:50:59;;;;;;;5.78;1.70;;;9.60;90.60;;;;;;4859547;29;20213;-80
2024/03/17 10:53:28;;;;;;;0.50;0.50;;;9.80;87.80;;;;;;4856385;29;20218;-80
2024/03/17 10:56:05;;;;;;;1.10;1.10;;;10.00;85.20;;;;;;4872922;29;20510;-79
2024/03/17 10:58:38;;;;;;;0.60;0.60;;;10.10;84.40;;;;;;4861933;29;20195;-86
2024/03/17 11:01:06;;;;;;;0.50;0.50;;;10.50;85.00;;;;;;4872534;29;20208;-82
2024/03/17 11:03:35;;;;;;;0.60;0.60;;;10.60;84.70;;;;;;4886123;29;20210;-85
2024/03/17 11:06:05;;;;;;;0.60;0.60;;;10.20;81.60;;;;;;4872908;29;20206;-84
2024/03/17 11:08:33;;;;;;;0.60;0.60;;;10.20;84.90;;;;;;4860560;29;20227;-82
2024/03/17 11:11:00;;;;;;;0.60;0.60;;;9.60;83.70;;;;;;4865647;29;20203;-84
2024/03/17 11:13:31;;;;;;;0.70;0.70;;;9.40;83.50;;;;;;4850741;29;20203;-80
2024/03/17 11:15:58;;;;;;;1.60;1.50;;;8.50;85.70;;;;;;4860557;29;20567;-85
2024/03/17 11:18:24;;;;;;;0.60;0.60;;;8.40;88.00;;;;;;4861470;29;20220;-82
2024/03/17 11:21:20;;;;;;;1.33;1.33;;;8.30;85.00;;;;;;4855526;29;20211;-81
2024/03/17 11:23:58;;;;;;;1.10;1.10;;;8.40;86.50;;;;;;4862337;29;20214;-82
2024/03/17 11:26:29;;;;;;;2.55;2.45;;;8.60;85.10;;;;;;4846902;29;20390;-82
2024/03/17 11:28:58;;;;;;;2.47;1.70;;;8.70;85.20;;;;;;4857554;29;20230;-82
2024/03/17 11:31:44;;;;;;;0.80;0.80;;;9.00;84.40;;;;;;4870441;29;20198;-82
2024/03/17 11:34:34;;;;;;;0.55;0.55;;;9.10;87.00;;;;;;4870085;29;20402;-80
2024/03/17 11:37:03;;;;;;;0.60;0.60;;;9.30;84.00;;;;;;4876452;29;20191;-84
2024/03/17 11:39:57;;;;;;;0.60;0.60;;;9.30;80.80;;;;;;4868990;29;20202;-84
2024/03/17 11:42:25;;;;;;;0.60;0.60;;;9.50;81.90;;;;;;4889194;29;20214;-82
2024/03/17 11:45:12;;;;;;;0.60;0.60;;;9.20;82.50;;;;;;4894104;29;20199;-81
2024/03/17 11:47:42;;;;;;;0.60;0.60;;;8.40;82.50;;;;;;4869916;29;20580;-82
2024/03/17 11:50:10;;;;;;;0.60;0.60;;;8.30;84.80;;;;;;4864320;29;20207;-85
2024/03/17 11:52:37;;;;;;;1.05;1.05;;;8.30;84.70;;;;;;4853400;29;20220;-81
2024/03/17 11:55:04;;;;;;;0.50;0.50;;;8.20;84.50;;;;;;4861415;29;20218;-83
2024/03/17 11:57:30;;;;;;;0.50;0.50;;;8.20;85.80;;;;;;4852295;29;20221;-81
2024/03/17 11:59:57;;;;;;;0.50;0.50;;;8.50;84.60;;;;;;4866070;29;20206;-84
2024/03/17 12:02:26;;;;;;;0.55;0.55;;;8.80;84.10;;;;;;4847771;29;20394;-85
2024/03/17 12:04:54;;;;;;;0.60;0.60;;;8.60;84.40;;;;;;4862179;29;20278;-81
2024/03/17 12:07:23;;;;;;;0.60;0.60;;;9.00;84.20;;;;;;4859781;29;20564;-79
2024/03/17 12:09:50;;;;;;;0.50;0.50;;;9.00;83.50;;;;;;4873699;29;20245;-86
2024/03/17 12:12:36;;;;;;;0.70;0.70;;;9.30;83.30;;;;;;4868614;29;20203;-79
2024/03/17 12:15:11;;;;;;;1.27;1.25;;;9.40;81.70;;;;;;4869431;29;20539;-83
2024/03/17 12:17:37;;;;;;;0.50;0.50;;;9.60;81.90;;;;;;4879179;29;20642;-81
2024/03/17 12:20:04;;;;;;;0.60;0.60;;;10.00;81.70;;;;;;4867710;29;20229;-84
2024/03/17 12:22:35;;;;;;;1.67;1.58;;;9.90;80.40;;;;;;4869633;29;20502;-82
2024/03/17 12:25:02;;;;;;;0.60;0.60;;;10.20;82.30;;;;;;4862029;29;20206;-83
2024/03/17 12:27:28;;;;;;;0.60;0.60;;;10.00;76.90;;;;;;4874439;29;20534;-81
2024/03/17 12:29:55;;;;;;;0.70;0.70;;;10.10;79.40;;;;;;4868336;29;20241;-84
2024/03/17 12:32:24;;;;;;;0.60;0.60;;;10.30;78.40;;;;;;4837719;29;20503;-84
2024/03/17 12:34:57;;;;;;;0.73;0.73;;;10.30;78.20;;;;;;4871914;29;20214;-83
2024/03/17 12:37:33;;;;;;;0.60;0.60;;;10.50;78.70;;;;;;4848740;29;20210;-82
2024/03/17 12:40:04;;;;;;;2.25;1.77;;;10.30;78.20;;;;;;4864793;29;20296;-85
2024/03/17 12:42:32;;;;;;;1.00;1.00;;;10.20;76.60;;;;;;4860824;29;20212;-82
2024/03/17 12:45:21;;;;;;;0.50;0.50;;;10.20;77.00;;;;;;4839025;29;20432;-82
2024/03/17 12:47:52;;;;;;;0.80;0.80;;;10.30;79.10;;;;;;4881168;29;20870;-82
2024/03/17 12:50:50;;;;;;;0.60;0.60;;;10.60;76.60;;;;;;4859436;29;20207;-84
2024/03/17 12:53:23;;;;;;;0.60;0.60;;;10.40;76.80;;;;;;4869792;29;20187;-83
2024/03/17 13:01:24;;;;;;;0.60;0.60;;;9.90;77.30;;;;;;4877461;29;20218;-83
2024/03/17 13:03:50;;;;;;;0.63;0.63;;;10.10;77.90;;;;;;4869413;29;20214;-83
2024/03/17 13:06:26;;;;;;;1.58;1.35;;;10.00;76.30;;;;;;4854079;29;20443;-82